sensor_id;sensor_type;location;lat;lon;timestamp;pressure;altitude;pressure_sealevel;temperature;humidity
60817;BME280;51921;51.518;-3.188;2023-03-04T00:00:28;102824.73;;;0.19;83.35
60817;BME280;51921;51.518;-3.188;2023-03-04T00:02:54;102827.25;;;0.27;85.01
60817;BME280;51921;51.518;-3.188;2023-03-04T00:05:19;102827.69;;;-0.10;83.42
60817;BME280;51921;51.518;-3.188;2023-03-04T00:07:45;102826.53;;;-0.37;86.41
60817;BME280;51921;51.518;-3.188;2023-03-04T00:10:11;102826.81;;;-0.07;86.97
60817;BME280;51921;51.518;-3.188;2023-03-04T00:12:35;102826.35;;;0.30;86.02
60817;BME280;51921;51.518;-3.188;2023-03-04T00:15:01;102823.22;;;0.42;83.75
60817;BME280;51921;51.518;-3.188;2023-03-04T00:17:26;102821.03;;;-0.14;88.68
60817;BME280;51921;51.518;-3.188;2023-03-04T00:19:52;102817.94;;;-0.27;89.80
60817;BME280;51921;51.518;-3.188;2023-03-04T00:22:17;102822.11;;;-0.57;92.08
60817;BME280;51921;51.518;-3.188;2023-03-04T00:24:43;102815.94;;;-0.21;92.55
60817;BME280;51921;51.518;-3.188;2023-03-04T00:27:09;102812.34;;;0.07;90.71
60817;BME280;51921;51.518;-3.188;2023-03-04T00:29:34;102814.85;;;-0.27;92.45
60817;BME280;51921;51.518;-3.188;2023-03-04T00:31:59;102810.62;;;0.11;90.50
60817;BME280;51921;51.518;-3.188;2023-03-04T00:34:25;102812.15;;;-0.02;87.74
60817;BME280;51921;51.518;-3.188;2023-03-04T00:36:50;102815.74;;;-0.10;89.14
60817;BME280;51921;51.518;-3.188;2023-03-04T00:39:16;102813.26;;;-0.45;88.54
60817;BME280;51921;51.518;-3.188;2023-03-04T00:41:42;102812.48;;;0.21;88.80
60817;BME280;51921;51.518;-3.188;2023-03-04T00:44:07;102813.02;;;-0.29;90.64
60817;BME280;51921;51.518;-3.188;2023-03-04T00:46:32;102813.05;;;-0.25;90.04
60817;BME280;51921;51.518;-3.188;2023-03-04T00:48:58;102810.92;;;-0.26;89.28
60817;BME280;51921;51.518;-3.188;2023-03-04T00:51:24;102812.94;;;-0.41;89.92
60817;BME280;51921;51.518;-3.188;2023-03-04T00:53:49;102811.90;;;-0.14;86.89
60817;BME280;51921;51.518;-3.188;2023-03-04T00:56:15;102808.41;;;-0.22;89.42
60817;BME280;51921;51.518;-3.188;2023-03-04T00:58:40;102808.43;;;-0.07;89.36
60817;BME280;51921;51.518;-3.188;2023-03-04T01:01:06;102814.38;;;-0.35;89.58
60817;BME280;51921;51.518;-3.188;2023-03-04T01:03:31;102813.81;;;-0.28;89.79
60817;BME280;51921;51.518;-3.188;2023-03-04T01:05:57;102814.76;;;-0.49;93.18
60817;BME280;51921;51.518;-3.188;2023-03-04T01:08:23;102808.85;;;-0.51;93.38
60817;BME280;51921;51.518;-3.188;2023-03-04T01:10:48;102808.77;;;-0.54;91.34
60817;BME280;51921;51.518;-3.188;2023-03-04T01:13:14;102805.29;;;-0.26;92.74
60817;BME280;51921;51.518;-3.188;2023-03-04T01:15:39;102805.83;;;-0.42;92.83
60817;BME280;51921;51.518;-3.188;2023-03-04T01:18:05;102807.94;;;0.61;88.23
60817;BME280;51921;51.518;-3.188;2023-03-04T01:20:30;102809.64;;;0.39;86.36
60817;BME280;51921;51.518;-3.188;2023-03-04T01:22:55;102806.70;;;0.16;88.50
60817;BME280;51921;51.518;-3.188;2023-03-04T01:25:21;102807.11;;;0.80;85.88
60817;BME280;51921;51.518;-3.188;2023-03-04T01:27:46;102809.99;;;1.06;80.40
60817;BME280;51921;51.518;-3.188;2023-03-04T01:30:12;102806.38;;;-0.16;84.43
60817;BME280;51921;51.518;-3.188;2023-03-04T01:32:37;102809.29;;;1.35;83.03
60817;BME280;51921;51.518;-3.188;2023-03-04T01:35:04;102809.86;;;0.30;84.45
60817;BME280;51921;51.518;-3.188;2023-03-04T01:37:28;102813.80;;;-0.09;86.40
60817;BME280;51921;51.518;-3.188;2023-03-04T01:39:53;102819.57;;;1.15;84.93
60817;BME280;51921;51.518;-3.188;2023-03-04T01:42:21;102816.57;;;0.93;82.87
60817;BME280;51921;51.518;-3.188;2023-03-04T01:44:45;102814.76;;;1.09;84.45
60817;BME280;51921;51.518;-3.188;2023-03-04T01:47:10;102810.27;;;0.13;87.59
60817;BME280;51921;51.518;-3.188;2023-03-04T01:49:35;102808.58;;;-0.05;89.22
60817;BME280;51921;51.518;-3.188;2023-03-04T01:52:01;102810.82;;;0.40;86.17
60817;BME280;51921;51.518;-3.188;2023-03-04T01:54:28;102809.51;;;0.78;88.27
60817;BME280;51921;51.518;-3.188;2023-03-04T01:56:52;102809.27;;;0.96;84.56
60817;BME280;51921;51.518;-3.188;2023-03-04T01:59:19;102806.09;;;1.49;78.25
60817;BME280;51921;51.518;-3.188;2023-03-04T02:01:44;102808.57;;;1.24;82.74
60817;BME280;51921;51.518;-3.188;2023-03-04T02:04:08;102807.18;;;0.84;83.78
60817;BME280;51921;51.518;-3.188;2023-03-04T02:06:34;102804.65;;;0.35;83.77
60817;BME280;51921;51.518;-3.188;2023-03-04T02:08:59;102802.27;;;1.19;79.67
60817;BME280;51921;51.518;-3.188;2023-03-04T02:11:25;102802.67;;;0.70;81.57
60817;BME280;51921;51.518;-3.188;2023-03-04T02:13:51;102802.05;;;0.77;83.81
60817;BME280;51921;51.518;-3.188;2023-03-04T02:16:15;102798.59;;;0.37;86.39
60817;BME280;51921;51.518;-3.188;2023-03-04T02:18:40;102794.83;;;0.52;84.11
60817;BME280;51921;51.518;-3.188;2023-03-04T02:21:10;102794.80;;;0.61;85.02
60817;BME280;51921;51.518;-3.188;2023-03-04T02:23:35;102790.33;;;0.82;84.07
60817;BME280;51921;51.518;-3.188;2023-03-04T02:26:11;102784.68;;;-0.48;90.28
60817;BME280;51921;51.518;-3.188;2023-03-04T02:28:22;102785.82;;;1.17;83.79
60817;BME280;51921;51.518;-3.188;2023-03-04T02:30:47;102784.19;;;0.47;85.74
60817;BME280;51921;51.518;-3.188;2023-03-04T02:33:16;102782.55;;;-0.26;89.61
60817;BME280;51921;51.518;-3.188;2023-03-04T02:35:37;102783.87;;;0.57;87.86
60817;BME280;51921;51.518;-3.188;2023-03-04T02:38:03;102785.06;;;-0.04;89.86
60817;BME280;51921;51.518;-3.188;2023-03-04T02:40:30;102785.17;;;-0.40;93.16
60817;BME280;51921;51.518;-3.188;2023-03-04T02:42:54;102780.74;;;-0.69;92.68
60817;BME280;51921;51.518;-3.188;2023-03-04T02:45:33;102778.17;;;-0.44;91.18
60817;BME280;51921;51.518;-3.188;2023-03-04T02:47:46;102774.28;;;-0.79;93.92
60817;BME280;51921;51.518;-3.188;2023-03-04T02:50:11;102777.59;;;-0.71;95.19
60817;BME280;51921;51.518;-3.188;2023-03-04T02:52:36;102776.72;;;-0.59;93.94
60817;BME280;51921;51.518;-3.188;2023-03-04T02:55:02;102774.48;;;-0.83;96.62
60817;BME280;51921;51.518;-3.188;2023-03-04T02:57:27;102773.05;;;-0.19;94.53
60817;BME280;51921;51.518;-3.188;2023-03-04T02:59:53;102776.04;;;0.49;90.96
60817;BME280;51921;51.518;-3.188;2023-03-04T03:02:18;102777.61;;;0.18;92.66
60817;BME280;51921;51.518;-3.188;2023-03-04T03:04:44;102776.72;;;0.06;95.09
60817;BME280;51921;51.518;-3.188;2023-03-04T03:07:09;102782.35;;;-0.43;93.25
60817;BME280;51921;51.518;-3.188;2023-03-04T03:09:35;102781.40;;;-0.07;94.09
60817;BME280;51921;51.518;-3.188;2023-03-04T03:12:00;102781.54;;;0.87;89.62
60817;BME280;51921;51.518;-3.188;2023-03-04T03:14:25;102775.60;;;0.46;88.65
60817;BME280;51921;51.518;-3.188;2023-03-04T03:16:50;102774.55;;;-0.12;90.59
60817;BME280;51921;51.518;-3.188;2023-03-04T03:19:16;102774.30;;;-0.05;90.56
60817;BME280;51921;51.518;-3.188;2023-03-04T03:21:41;102776.11;;;0.88;89.16
60817;BME280;51921;51.518;-3.188;2023-03-04T03:24:06;102772.11;;;1.04;84.74
60817;BME280;51921;51.518;-3.188;2023-03-04T03:26:32;102774.43;;;0.54;85.01
60817;BME280;51921;51.518;-3.188;2023-03-04T03:28:57;102775.65;;;0.83;86.00
60817;BME280;51921;51.518;-3.188;2023-03-04T03:31:23;102774.78;;;0.85;85.85
60817;BME280;51921;51.518;-3.188;2023-03-04T03:33:48;102776.93;;;0.77;84.97
60817;BME280;51921;51.518;-3.188;2023-03-04T03:36:14;102777.48;;;0.12;87.14
60817;BME280;51921;51.518;-3.188;2023-03-04T03:38:40;102779.03;;;1.29;81.19
60817;BME280;51921;51.518;-3.188;2023-03-04T03:41:05;102779.71;;;0.46;86.76
60817;BME280;51921;51.518;-3.188;2023-03-04T03:43:30;102782.11;;;0.45;86.74
60817;BME280;51921;51.518;-3.188;2023-03-04T03:45:56;102778.62;;;0.00;90.53
60817;BME280;51921;51.518;-3.188;2023-03-04T03:48:22;102776.96;;;-0.08;90.72
60817;BME280;51921;51.518;-3.188;2023-03-04T03:50:47;102774.39;;;0.26;88.22
60817;BME280;51921;51.518;-3.188;2023-03-04T03:53:13;102770.75;;;1.02;83.79
60817;BME280;51921;51.518;-3.188;2023-03-04T03:55:38;102774.08;;;0.78;83.25
60817;BME280;51921;51.518;-3.188;2023-03-04T03:58:03;102779.84;;;0.90;83.26
60817;BME280;51921;51.518;-3.188;2023-03-04T04:00:29;102777.37;;;2.16;77.62
60817;BME280;51921;51.518;-3.188;2023-03-04T04:02:55;102779.56;;;1.74;76.68
60817;BME280;51921;51.518;-3.188;2023-03-04T04:05:20;102780.84;;;2.85;70.55
60817;BME280;51921;51.518;-3.188;2023-03-04T04:07:45;102782.38;;;2.25;69.89
60817;BME280;51921;51.518;-3.188;2023-03-04T04:10:11;102785.49;;;1.76;71.42
60817;BME280;51921;51.518;-3.188;2023-03-04T04:12:36;102793.74;;;0.26;77.61
60817;BME280;51921;51.518;-3.188;2023-03-04T04:15:03;102794.22;;;0.66;82.10
60817;BME280;51921;51.518;-3.188;2023-03-04T04:17:27;102792.74;;;0.45;82.70
60817;BME280;51921;51.518;-3.188;2023-03-04T04:19:53;102796.52;;;1.63;75.95
60817;BME280;51921;51.518;-3.188;2023-03-04T04:22:19;102797.34;;;1.39;78.77
60817;BME280;51921;51.518;-3.188;2023-03-04T04:24:44;102791.35;;;3.94;69.89
60817;BME280;51921;51.518;-3.188;2023-03-04T04:27:10;102794.06;;;4.19;66.34
60817;BME280;51921;51.518;-3.188;2023-03-04T04:29:35;102795.82;;;2.88;65.67
60817;BME280;51921;51.518;-3.188;2023-03-04T04:32:01;102790.43;;;3.76;65.14
60817;BME280;51921;51.518;-3.188;2023-03-04T04:34:26;102788.46;;;4.76;61.22
60817;BME280;51921;51.518;-3.188;2023-03-04T04:36:51;102788.53;;;3.29;65.21
60817;BME280;51921;51.518;-3.188;2023-03-04T04:39:17;102791.77;;;1.55;70.03
60817;BME280;51921;51.518;-3.188;2023-03-04T04:41:43;102791.79;;;2.32;69.52
60817;BME280;51921;51.518;-3.188;2023-03-04T04:44:13;102792.62;;;2.83;67.76
60817;BME280;51921;51.518;-3.188;2023-03-04T04:46:33;102790.26;;;3.24;66.55
60817;BME280;51921;51.518;-3.188;2023-03-04T04:48:58;102793.61;;;2.49;69.23
60817;BME280;51921;51.518;-3.188;2023-03-04T04:51:23;102788.19;;;4.57;63.06
60817;BME280;51921;51.518;-3.188;2023-03-04T04:53:48;102789.17;;;5.83;60.67
60817;BME280;51921;51.518;-3.188;2023-03-04T04:56:17;102792.56;;;3.96;62.22
60817;BME280;51921;51.518;-3.188;2023-03-04T04:58:40;102797.42;;;3.14;64.03
60817;BME280;51921;51.518;-3.188;2023-03-04T05:01:05;102796.69;;;3.48;64.18
60817;BME280;51921;51.518;-3.188;2023-03-04T05:03:30;102799.60;;;4.78;60.90
60817;BME280;51921;51.518;-3.188;2023-03-04T05:05:55;102801.65;;;5.33;59.30
60817;BME280;51921;51.518;-3.188;2023-03-04T05:08:21;102798.76;;;4.64;58.08
60817;BME280;51921;51.518;-3.188;2023-03-04T05:10:47;102797.60;;;3.19;63.00
60817;BME280;51921;51.518;-3.188;2023-03-04T05:13:11;102801.28;;;3.96;61.86
60817;BME280;51921;51.518;-3.188;2023-03-04T05:15:37;102797.66;;;4.32;61.06
60817;BME280;51921;51.518;-3.188;2023-03-04T05:18:02;102792.80;;;4.60;59.59
60817;BME280;51921;51.518;-3.188;2023-03-04T05:20:28;102792.85;;;5.72;58.43
60817;BME280;51921;51.518;-3.188;2023-03-04T05:22:53;102794.33;;;5.86;57.51
60817;BME280;51921;51.518;-3.188;2023-03-04T05:25:18;102795.22;;;4.54;58.74
60817;BME280;51921;51.518;-3.188;2023-03-04T05:27:44;102796.28;;;5.60;56.81
60817;BME280;51921;51.518;-3.188;2023-03-04T05:30:11;102790.94;;;3.53;60.26
60817;BME280;51921;51.518;-3.188;2023-03-04T05:32:35;102794.83;;;3.85;60.46
60817;BME280;51921;51.518;-3.188;2023-03-04T05:35:00;102795.23;;;2.77;63.31
60817;BME280;51921;51.518;-3.188;2023-03-04T05:37:26;102797.04;;;2.53;66.11
60817;BME280;51921;51.518;-3.188;2023-03-04T05:39:51;102797.37;;;1.99;71.47
60817;BME280;51921;51.518;-3.188;2023-03-04T05:42:17;102795.73;;;2.02;67.70
60817;BME280;51921;51.518;-3.188;2023-03-04T05:44:42;102801.90;;;1.10;73.83
60817;BME280;51921;51.518;-3.188;2023-03-04T05:47:07;102802.86;;;0.49;78.63
60817;BME280;51921;51.518;-3.188;2023-03-04T05:49:33;102800.24;;;0.25;81.21
60817;BME280;51921;51.518;-3.188;2023-03-04T05:51:58;102800.69;;;-0.59;85.94
60817;BME280;51921;51.518;-3.188;2023-03-04T05:54:24;102796.76;;;0.07;86.22
60817;BME280;51921;51.518;-3.188;2023-03-04T05:56:49;102798.65;;;-0.43;88.84
60817;BME280;51921;51.518;-3.188;2023-03-04T05:59:15;102799.12;;;-0.16;90.70
60817;BME280;51921;51.518;-3.188;2023-03-04T06:01:40;102792.81;;;-0.29;89.52
60817;BME280;51921;51.518;-3.188;2023-03-04T06:04:06;102795.16;;;-0.28;88.39
60817;BME280;51921;51.518;-3.188;2023-03-04T06:06:31;102797.29;;;-0.59;90.88
60817;BME280;51921;51.518;-3.188;2023-03-04T06:08:57;102799.03;;;-0.15;90.86
60817;BME280;51921;51.518;-3.188;2023-03-04T06:11:21;102804.87;;;-0.16;91.13
60817;BME280;51921;51.518;-3.188;2023-03-04T06:13:47;102805.75;;;-0.57;94.07
60817;BME280;51921;51.518;-3.188;2023-03-04T06:16:12;102806.66;;;-0.67;95.79
60817;BME280;51921;51.518;-3.188;2023-03-04T06:18:38;102805.77;;;-0.73;96.51
60817;BME280;51921;51.518;-3.188;2023-03-04T06:21:04;102804.89;;;-0.08;95.76
60817;BME280;51921;51.518;-3.188;2023-03-04T06:23:30;102806.34;;;-0.43;95.74
60817;BME280;51921;51.518;-3.188;2023-03-04T06:25:55;102807.89;;;-0.33;96.05
60817;BME280;51921;51.518;-3.188;2023-03-04T06:28:20;102799.86;;;-0.07;92.71
60817;BME280;51921;51.518;-3.188;2023-03-04T06:30:45;102802.81;;;-0.72;94.47
60817;BME280;51921;51.518;-3.188;2023-03-04T06:33:11;102804.24;;;-0.49;92.03
60817;BME280;51921;51.518;-3.188;2023-03-04T06:35:37;102808.40;;;-0.42;91.53
60817;BME280;51921;51.518;-3.188;2023-03-04T06:38:02;102811.40;;;-0.10;89.28
60817;BME280;51921;51.518;-3.188;2023-03-04T06:40:27;102818.18;;;0.36;87.80
60817;BME280;51921;51.518;-3.188;2023-03-04T06:42:53;102819.75;;;0.28;87.72
60817;BME280;51921;51.518;-3.188;2023-03-04T06:45:18;102819.99;;;0.20;86.27
60817;BME280;51921;51.518;-3.188;2023-03-04T06:47:44;102822.67;;;0.33;87.77
60817;BME280;51921;51.518;-3.188;2023-03-04T06:50:15;102816.86;;;-0.13;89.34
60817;BME280;51921;51.518;-3.188;2023-03-04T06:52:34;102820.13;;;0.48;87.39
60817;BME280;51921;51.518;-3.188;2023-03-04T06:55:00;102819.31;;;0.37;88.06
60817;BME280;51921;51.518;-3.188;2023-03-04T06:57:25;102820.47;;;0.31;90.54
60817;BME280;51921;51.518;-3.188;2023-03-04T06:59:52;102824.88;;;1.68;82.89
60817;BME280;51921;51.518;-3.188;2023-03-04T07:02:16;102822.41;;;1.87;76.88
60817;BME280;51921;51.518;-3.188;2023-03-04T07:04:41;102821.06;;;2.48;75.06
60817;BME280;51921;51.518;-3.188;2023-03-04T07:07:06;102825.73;;;2.37;72.07
60817;BME280;51921;51.518;-3.188;2023-03-04T07:09:32;102829.66;;;3.40;71.89
60817;BME280;51921;51.518;-3.188;2023-03-04T07:11:57;102834.66;;;3.39;69.55
60817;BME280;51921;51.518;-3.188;2023-03-04T07:14:23;102839.80;;;1.11;76.80
60817;BME280;51921;51.518;-3.188;2023-03-04T07:16:49;102837.10;;;1.47;77.43
60817;BME280;51921;51.518;-3.188;2023-03-04T07:19:15;102836.55;;;1.79;76.75
60817;BME280;51921;51.518;-3.188;2023-03-04T07:21:40;102831.30;;;0.23;82.90
60817;BME280;51921;51.518;-3.188;2023-03-04T07:24:05;102836.50;;;1.30;80.09
60817;BME280;51921;51.518;-3.188;2023-03-04T07:26:30;102836.41;;;1.90;77.70
60817;BME280;51921;51.518;-3.188;2023-03-04T07:28:56;102834.84;;;0.65;82.65
60817;BME280;51921;51.518;-3.188;2023-03-04T07:31:24;102836.75;;;0.18;84.79
60817;BME280;51921;51.518;-3.188;2023-03-04T07:33:47;102836.80;;;-0.06;87.50
60817;BME280;51921;51.518;-3.188;2023-03-04T07:36:12;102839.14;;;0.37;84.50
60817;BME280;51921;51.518;-3.188;2023-03-04T07:38:37;102842.03;;;-0.36;89.04
60817;BME280;51921;51.518;-3.188;2023-03-04T07:41:03;102846.76;;;-0.51;89.26
60817;BME280;51921;51.518;-3.188;2023-03-04T07:43:28;102847.15;;;-0.76;90.01
60817;BME280;51921;51.518;-3.188;2023-03-04T07:45:58;102847.29;;;-0.90;92.82
60817;BME280;51921;51.518;-3.188;2023-03-04T07:48:18;102847.48;;;-0.61;92.84
60817;BME280;51921;51.518;-3.188;2023-03-04T07:50:43;102842.36;;;0.21;88.75
60817;BME280;51921;51.518;-3.188;2023-03-04T07:53:09;102846.52;;;0.80;85.22
60817;BME280;51921;51.518;-3.188;2023-03-04T07:55:35;102846.81;;;-0.30;88.88
60817;BME280;51921;51.518;-3.188;2023-03-04T07:58:00;102846.84;;;-0.16;87.93
60817;BME280;51921;51.518;-3.188;2023-03-04T08:00:26;102846.56;;;0.10;89.13
60817;BME280;51921;51.518;-3.188;2023-03-04T08:02:51;102848.56;;;-0.07;89.47
60817;BME280;51921;51.518;-3.188;2023-03-04T08:05:16;102853.42;;;-0.08;89.94
60817;BME280;51921;51.518;-3.188;2023-03-04T08:07:42;102852.02;;;-0.08;90.08
60817;BME280;51921;51.518;-3.188;2023-03-04T08:10:08;102859.90;;;-0.65;91.21
60817;BME280;51921;51.518;-3.188;2023-03-04T08:12:33;102861.41;;;-0.54;91.17
60817;BME280;51921;51.518;-3.188;2023-03-04T08:15:01;102863.48;;;-0.46;90.63
60817;BME280;51921;51.518;-3.188;2023-03-04T08:17:23;102863.36;;;0.23;90.77
60817;BME280;51921;51.518;-3.188;2023-03-04T08:19:49;102867.99;;;-0.23;89.18
60817;BME280;51921;51.518;-3.188;2023-03-04T08:22:14;102867.87;;;-0.25;90.25
60817;BME280;51921;51.518;-3.188;2023-03-04T08:24:39;102868.71;;;-0.22;90.17
60817;BME280;51921;51.518;-3.188;2023-03-04T08:27:05;102869.29;;;-0.06;89.54
60817;BME280;51921;51.518;-3.188;2023-03-04T08:29:31;102869.89;;;-0.41;91.09
60817;BME280;51921;51.518;-3.188;2023-03-04T08:31:56;102874.10;;;-0.08;91.73
60817;BME280;51921;51.518;-3.188;2023-03-04T08:34:24;102880.44;;;0.17;89.89
60817;BME280;51921;51.518;-3.188;2023-03-04T08:36:47;102883.89;;;0.26;87.41
60817;BME280;51921;51.518;-3.188;2023-03-04T08:39:14;102881.59;;;0.77;84.53
60817;BME280;51921;51.518;-3.188;2023-03-04T08:41:39;102881.95;;;-0.33;87.72
60817;BME280;51921;51.518;-3.188;2023-03-04T08:44:04;102887.69;;;-0.12;88.98
60817;BME280;51921;51.518;-3.188;2023-03-04T08:46:29;102889.70;;;-0.08;87.81
60817;BME280;51921;51.518;-3.188;2023-03-04T08:48:54;102890.27;;;-0.35;89.41
60817;BME280;51921;51.518;-3.188;2023-03-04T08:51:19;102890.70;;;-0.31;90.66
60817;BME280;51921;51.518;-3.188;2023-03-04T08:53:45;102889.06;;;-0.04;90.08
60817;BME280;51921;51.518;-3.188;2023-03-04T08:56:11;102890.00;;;-0.36;90.10
60817;BME280;51921;51.518;-3.188;2023-03-04T08:58:40;102891.82;;;-0.57;89.82
60817;BME280;51921;51.518;-3.188;2023-03-04T09:01:02;102890.12;;;0.09;90.06
60817;BME280;51921;51.518;-3.188;2023-03-04T09:03:27;102892.83;;;-0.49;90.27
60817;BME280;51921;51.518;-3.188;2023-03-04T09:05:53;102891.00;;;-0.63;92.62
60817;BME280;51921;51.518;-3.188;2023-03-04T09:08:18;102893.67;;;-0.48;91.53
60817;BME280;51921;51.518;-3.188;2023-03-04T09:10:44;102889.48;;;0.61;86.97
60817;BME280;51921;51.518;-3.188;2023-03-04T09:13:09;102887.16;;;1.30;81.33
60817;BME280;51921;51.518;-3.188;2023-03-04T09:15:34;102882.14;;;0.47;86.62
60817;BME280;51921;51.518;-3.188;2023-03-04T09:18:00;102886.04;;;1.02;84.91
60817;BME280;51921;51.518;-3.188;2023-03-04T09:20:25;102887.82;;;0.02;86.08
60817;BME280;51921;51.518;-3.188;2023-03-04T09:22:51;102888.84;;;0.16;86.01
60817;BME280;51921;51.518;-3.188;2023-03-04T09:25:20;102888.42;;;0.17;84.36
60817;BME280;51921;51.518;-3.188;2023-03-04T09:27:41;102887.02;;;-0.27;86.24
60817;BME280;51921;51.518;-3.188;2023-03-04T09:30:08;102881.47;;;-0.53;89.65
60817;BME280;51921;51.518;-3.188;2023-03-04T09:32:32;102881.94;;;-0.63;90.27
60817;BME280;51921;51.518;-3.188;2023-03-04T09:34:58;102879.83;;;-0.15;86.34
60817;BME280;51921;51.518;-3.188;2023-03-04T09:37:24;102881.65;;;0.36;86.25
60817;BME280;51921;51.518;-3.188;2023-03-04T09:39:50;102882.11;;;0.40;83.16
60817;BME280;51921;51.518;-3.188;2023-03-04T09:42:21;102880.93;;;-0.22;87.28
60817;BME280;51921;51.518;-3.188;2023-03-04T09:44:42;102882.40;;;-0.35;87.48
60817;BME280;51921;51.518;-3.188;2023-03-04T09:47:11;102881.20;;;0.51;85.20
60817;BME280;51921;51.518;-3.188;2023-03-04T09:49:32;102884.96;;;0.49;81.65
60817;BME280;51921;51.518;-3.188;2023-03-04T09:52:02;102885.93;;;0.47;81.77
60817;BME280;51921;51.518;-3.188;2023-03-04T09:54:32;102888.21;;;0.92;79.00
60817;BME280;51921;51.518;-3.188;2023-03-04T09:56:50;102888.74;;;0.07;83.26
60817;BME280;51921;51.518;-3.188;2023-03-04T09:59:20;102884.55;;;0.43;83.87
60817;BME280;51921;51.518;-3.188;2023-03-04T10:01:48;102888.11;;;0.55;83.26
60817;BME280;51921;51.518;-3.188;2023-03-04T10:04:10;102888.62;;;0.42;82.14
60817;BME280;51921;51.518;-3.188;2023-03-04T10:06:30;102889.04;;;-0.24;86.15
60817;BME280;51921;51.518;-3.188;2023-03-04T10:08:59;102882.50;;;-0.01;85.90
60817;BME280;51921;51.518;-3.188;2023-03-04T10:11:26;102879.86;;;0.63;81.44
60817;BME280;51921;51.518;-3.188;2023-03-04T10:13:54;102878.98;;;0.68;81.36
60817;BME280;51921;51.518;-3.188;2023-03-04T10:16:15;102877.23;;;0.58;80.55
60817;BME280;51921;51.518;-3.188;2023-03-04T10:18:40;102871.30;;;-0.34;87.24
60817;BME280;51921;51.518;-3.188;2023-03-04T10:21:11;102872.15;;;-0.41;88.09
60817;BME280;51921;51.518;-3.188;2023-03-04T10:23:30;102868.81;;;0.20;86.34
60817;BME280;51921;51.518;-3.188;2023-03-04T10:25:54;102870.57;;;0.11;85.41
60817;BME280;51921;51.518;-3.188;2023-03-04T10:28:22;102875.11;;;-0.09;87.78
60817;BME280;51921;51.518;-3.188;2023-03-04T10:30:48;102871.89;;;0.08;85.51
60817;BME280;51921;51.518;-3.188;2023-03-04T10:33:12;102867.06;;;0.97;82.60
60817;BME280;51921;51.518;-3.188;2023-03-04T10:35:36;102868.82;;;0.80;83.28
60817;BME280;51921;51.518;-3.188;2023-03-04T10:38:03;102870.02;;;0.05;86.18
60817;BME280;51921;51.518;-3.188;2023-03-04T10:40:27;102869.53;;;-0.29;90.44
60817;BME280;51921;51.518;-3.188;2023-03-04T10:42:53;102868.35;;;-0.29;89.53
60817;BME280;51921;51.518;-3.188;2023-03-04T10:45:21;102869.09;;;0.09;87.83
60817;BME280;51921;51.518;-3.188;2023-03-04T10:47:53;102865.37;;;0.25;87.45
60817;BME280;51921;51.518;-3.188;2023-03-04T10:50:20;102863.85;;;-0.06;86.14
60817;BME280;51921;51.518;-3.188;2023-03-04T10:52:37;102863.04;;;0.92;83.67
60817;BME280;51921;51.518;-3.188;2023-03-04T10:55:02;102866.53;;;0.30;82.89
60817;BME280;51921;51.518;-3.188;2023-03-04T10:57:32;102869.49;;;0.63;81.85
60817;BME280;51921;51.518;-3.188;2023-03-04T10:59:56;102864.79;;;-0.08;85.83
60817;BME280;51921;51.518;-3.188;2023-03-04T11:02:20;102866.12;;;-0.18;88.49
60817;BME280;51921;51.518;-3.188;2023-03-04T11:04:41;102864.43;;;-0.09;87.73
60817;BME280;51921;51.518;-3.188;2023-03-04T11:07:13;102856.71;;;0.64;84.88
60817;BME280;51921;51.518;-3.188;2023-03-04T11:09:32;102856.83;;;0.13;86.84
60817;BME280;51921;51.518;-3.188;2023-03-04T11:11:59;102849.68;;;0.65;86.57
60817;BME280;51921;51.518;-3.188;2023-03-04T11:14:24;102849.19;;;0.56;83.70
60817;BME280;51921;51.518;-3.188;2023-03-04T11:16:55;102850.91;;;-0.03;84.53
60817;BME280;51921;51.518;-3.188;2023-03-04T11:19:15;102847.62;;;-0.02;85.10
60817;BME280;51921;51.518;-3.188;2023-03-04T11:21:40;102844.08;;;0.37;86.03
60817;BME280;51921;51.518;-3.188;2023-03-04T11:24:11;102847.54;;;0.35;84.98
60817;BME280;51921;51.518;-3.188;2023-03-04T11:26:33;102840.50;;;0.29;86.37
60817;BME280;51921;51.518;-3.188;2023-03-04T11:29:04;102836.68;;;1.20;81.26
60817;BME280;51921;51.518;-3.188;2023-03-04T11:31:25;102835.32;;;1.97;76.99
60817;BME280;51921;51.518;-3.188;2023-03-04T11:33:54;102827.62;;;0.26;79.67
60817;BME280;51921;51.518;-3.188;2023-03-04T11:36:23;102830.64;;;0.05;83.89
60817;BME280;51921;51.518;-3.188;2023-03-04T11:38:40;102823.56;;;0.32;85.95
60817;BME280;51921;51.518;-3.188;2023-03-04T11:41:05;102828.16;;;-0.29;88.09
60817;BME280;51921;51.518;-3.188;2023-03-04T11:43:33;102829.34;;;-0.19;90.06
60817;BME280;51921;51.518;-3.188;2023-03-04T11:46:04;102827.55;;;-0.22;90.53
60817;BME280;51921;51.518;-3.188;2023-03-04T11:48:27;102827.89;;;-0.39;90.71
60817;BME280;51921;51.518;-3.188;2023-03-04T11:50:49;102824.29;;;-0.33;92.52
60817;BME280;51921;51.518;-3.188;2023-03-04T11:53:18;102824.79;;;-0.13;91.88
60817;BME280;51921;51.518;-3.188;2023-03-04T11:55:40;102823.57;;;-0.06;89.22
60817;BME280;51921;51.518;-3.188;2023-03-04T11:58:14;102820.37;;;-0.37;87.71
60817;BME280;51921;51.518;-3.188;2023-03-04T12:00:36;102820.23;;;-0.08;87.79
60817;BME280;51921;51.518;-3.188;2023-03-04T12:03:01;102820.74;;;-0.22;90.68
60817;BME280;51921;51.518;-3.188;2023-03-04T12:05:22;102815.50;;;0.72;87.34
60817;BME280;51921;51.518;-3.188;2023-03-04T12:07:53;102811.63;;;-0.07;85.94
60817;BME280;51921;51.518;-3.188;2023-03-04T12:10:20;102812.74;;;-0.31;89.39
60817;BME280;51921;51.518;-3.188;2023-03-04T12:12:44;102818.17;;;-0.36;89.88
60817;BME280;51921;51.518;-3.188;2023-03-04T12:15:05;102809.01;;;0.54;85.70
60817;BME280;51921;51.518;-3.188;2023-03-04T12:17:37;102812.13;;;1.12;83.78
60817;BME280;51921;51.518;-3.188;2023-03-04T12:20:00;102815.12;;;-0.31;84.25
60817;BME280;51921;51.518;-3.188;2023-03-04T12:22:25;102810.84;;;0.27;85.50
60817;BME280;51921;51.518;-3.188;2023-03-04T12:24:57;102808.23;;;0.20;83.08
60817;BME280;51921;51.518;-3.188;2023-03-04T12:27:12;102808.08;;;-0.12;86.49
60817;BME280;51921;51.518;-3.188;2023-03-04T12:29:35;102801.18;;;-0.11;86.29
60817;BME280;51921;51.518;-3.188;2023-03-04T12:32:02;102798.14;;;0.57;83.86
60817;BME280;51921;51.518;-3.188;2023-03-04T12:34:33;102790.68;;;-0.31;82.21